Bad Durkheim Airport


Codes: EDRF/
Name: Bad Durkheim Airport
City: Bad Durkheim
Country: Germany
Elevation: 351 ft.

Photos at Bad Durkheim Airport


   Photos courtesy of SpottingLog. You can add your own sightings and photos by signing up for a free trial today.



No photos found.

Weather at Bad Durkheim Airport


Time (UTC)DescriptionTempratureWindCloud coverageVisibilityPressureHumidity
17-Jun-2024 06:00Light Rain16°C4 mph, S100%10000m1013hPa94%
17-Jun-2024 09:00Light Rain17°C11 mph, SW100%10000m1013hPa90%
17-Jun-2024 12:00Light Rain19°C11 mph, SW100%10000m1014hPa84%
17-Jun-2024 15:00Light Rain20°C9 mph, SW100%8356m1014hPa84%
17-Jun-2024 18:00Light Rain18°C7 mph, SW100%10000m1015hPa93%
17-Jun-2024 21:00Overcast Clouds15°C4 mph, SW95%10000m1016hPa95%
18-Jun-2024 00:00Overcast Clouds14°C2 mph, SW98%10000m1016hPa94%
18-Jun-2024 03:00Overcast Clouds14°C0 mph, S100%10000m1015hPa93%
18-Jun-2024 06:00Light Rain17°C2 mph, SE96%10000m1016hPa91%
18-Jun-2024 09:00Light Rain21°C4 mph, SE86%10000m1016hPa78%
18-Jun-2024 12:00Overcast Clouds26°C7 mph, S90%10000m1014hPa55%
18-Jun-2024 15:00Overcast Clouds26°C7 mph, S100%10000m1012hPa64%
18-Jun-2024 18:00Overcast Clouds24°C4 mph, SW100%10000m1011hPa78%
18-Jun-2024 21:00Overcast Clouds20°C4 mph, W100%10000m1013hPa90%
19-Jun-2024 00:00Light Rain17°C4 mph, N99%10000m1014hPa97%
19-Jun-2024 03:00Light Rain17°C2 mph, SW100%10000m1014hPa97%
19-Jun-2024 06:00Overcast Clouds19°C4 mph, NW97%10000m1016hPa91%
19-Jun-2024 09:00Light Rain17°C2 mph, N100%10000m1018hPa94%
19-Jun-2024 12:00Light Rain17°C4 mph, N100%10000m1019hPa93%
19-Jun-2024 15:00Broken Clouds21°C7 mph, NE77%10000m1019hPa74%
19-Jun-2024 18:00Broken Clouds21°C4 mph, N65%10000m1019hPa79%
19-Jun-2024 21:00Scattered Clouds16°C4 mph, NE32%10000m1021hPa88%
20-Jun-2024 00:00Broken Clouds15°C4 mph, N62%10000m1021hPa91%
20-Jun-2024 03:00Scattered Clouds14°C4 mph, N28%10000m1021hPa95%
20-Jun-2024 06:00Scattered Clouds16°C7 mph, NE48%10000m1020hPa84%
20-Jun-2024 09:00Overcast Clouds22°C11 mph, E97%10000m1019hPa64%
20-Jun-2024 12:00Light Rain20°C4 mph, NE98%10000m1018hPa82%
20-Jun-2024 15:00Overcast Clouds26°C7 mph, E95%10000m1016hPa66%
20-Jun-2024 18:00Light Rain24°C4 mph, SE98%10000m1014hPa83%
20-Jun-2024 21:00Light Rain21°C2 mph, NW91%10000m1015hPa91%
21-Jun-2024 00:00Light Rain19°C2 mph, NW76%10000m1012hPa96%
21-Jun-2024 03:00Light Rain19°C2 mph, SE81%10000m1011hPa95%
21-Jun-2024 06:00Light Rain22°C4 mph, S88%10000m1011hPa88%
21-Jun-2024 09:00Light Rain20°C13 mph, SW100%3435m1012hPa89%
21-Jun-2024 12:00Moderate Rain18°C7 mph, S100%8326m1013hPa96%
21-Jun-2024 15:00Moderate Rain19°C11 mph, SW97%4852m1013hPa89%
21-Jun-2024 18:00Light Rain18°C11 mph, SW99%10000m1014hPa91%
21-Jun-2024 21:00Overcast Clouds16°C9 mph, SW90%10000m1014hPa93%
22-Jun-2024 00:00Scattered Clouds15°C4 mph, SW50%10000m1015hPa96%
22-Jun-2024 03:00Broken Clouds16°C4 mph, SW55%10000m1015hPa92%